sensor_id;sensor_type;location;lat;lon;timestamp;P1;durP1;ratioP1;P2;durP2;ratioP2
20928;SDS011;21895;47.072;15.132;2023-12-20T00:01:05;4.97;;;2.00;;
20928;SDS011;21895;47.072;15.132;2023-12-20T00:03:32;5.30;;;2.57;;
20928;SDS011;21895;47.072;15.132;2023-12-20T00:06:08;7.00;;;2.87;;
20928;SDS011;21895;47.072;15.132;2023-12-20T00:08:35;2.67;;;1.87;;
20928;SDS011;21895;47.072;15.132;2023-12-20T00:11:01;2.93;;;1.57;;
20928;SDS011;21895;47.072;15.132;2023-12-20T00:13:28;1.90;;;1.37;;
20928;SDS011;21895;47.072;15.132;2023-12-20T00:15:55;3.80;;;2.10;;
20928;SDS011;21895;47.072;15.132;2023-12-20T00:18:21;1.57;;;1.13;;
20928;SDS011;21895;47.072;15.132;2023-12-20T00:20:49;2.43;;;1.60;;
20928;SDS011;21895;47.072;15.132;2023-12-20T00:23:15;10.43;;;2.40;;
20928;SDS011;21895;47.072;15.132;2023-12-20T00:25:42;5.40;;;2.37;;
20928;SDS011;21895;47.072;15.132;2023-12-20T00:28:08;5.03;;;1.73;;
20928;SDS011;21895;47.072;15.132;2023-12-20T00:30:35;2.03;;;1.23;;
20928;SDS011;21895;47.072;15.132;2023-12-20T00:33:02;1.37;;;1.20;;
20928;SDS011;21895;47.072;15.132;2023-12-20T00:35:29;8.13;;;2.40;;
20928;SDS011;21895;47.072;15.132;2023-12-20T00:37:56;3.43;;;1.60;;
20928;SDS011;21895;47.072;15.132;2023-12-20T00:40:23;6.50;;;2.53;;
20928;SDS011;21895;47.072;15.132;2023-12-20T00:42:50;7.33;;;3.17;;
20928;SDS011;21895;47.072;15.132;2023-12-20T00:45:16;4.90;;;2.70;;
20928;SDS011;21895;47.072;15.132;2023-12-20T00:47:43;5.53;;;2.70;;
20928;SDS011;21895;47.072;15.132;2023-12-20T00:50:10;5.00;;;2.63;;
20928;SDS011;21895;47.072;15.132;2023-12-20T00:52:37;2.70;;;1.73;;
20928;SDS011;21895;47.072;15.132;2023-12-20T00:55:04;12.50;;;2.17;;
20928;SDS011;21895;47.072;15.132;2023-12-20T00:57:31;23.83;;;2.80;;
20928;SDS011;21895;47.072;15.132;2023-12-20T00:59:58;4.47;;;2.60;;
20928;SDS011;21895;47.072;15.132;2023-12-20T01:02:24;2.40;;;1.67;;
20928;SDS011;21895;47.072;15.132;2023-12-20T01:04:51;7.80;;;2.50;;
20928;SDS011;21895;47.072;15.132;2023-12-20T01:07:18;6.97;;;2.87;;
20928;SDS011;21895;47.072;15.132;2023-12-20T01:09:44;3.83;;;2.93;;
20928;SDS011;21895;47.072;15.132;2023-12-20T01:12:11;6.83;;;3.20;;
20928;SDS011;21895;47.072;15.132;2023-12-20T01:14:38;4.13;;;2.60;;
20928;SDS011;21895;47.072;15.132;2023-12-20T01:17:05;3.70;;;1.67;;
20928;SDS011;21895;47.072;15.132;2023-12-20T01:19:31;1.10;;;1.00;;
20928;SDS011;21895;47.072;15.132;2023-12-20T01:21:58;3.93;;;1.70;;
20928;SDS011;21895;47.072;15.132;2023-12-20T01:24:24;2.10;;;1.27;;
20928;SDS011;21895;47.072;15.132;2023-12-20T01:26:51;4.77;;;1.53;;
20928;SDS011;21895;47.072;15.132;2023-12-20T01:29:18;3.97;;;2.17;;
20928;SDS011;21895;47.072;15.132;2023-12-20T01:31:44;6.47;;;1.97;;
20928;SDS011;21895;47.072;15.132;2023-12-20T01:34:11;2.70;;;1.27;;
20928;SDS011;21895;47.072;15.132;2023-12-20T01:36:38;2.53;;;1.43;;
20928;SDS011;21895;47.072;15.132;2023-12-20T01:39:05;11.40;;;1.87;;
20928;SDS011;21895;47.072;15.132;2023-12-20T01:41:49;6.53;;;2.37;;
20928;SDS011;21895;47.072;15.132;2023-12-20T01:44:16;4.27;;;1.40;;
20928;SDS011;21895;47.072;15.132;2023-12-20T01:46:43;1.60;;;1.50;;
20928;SDS011;21895;47.072;15.132;2023-12-20T01:49:09;4.13;;;2.13;;
20928;SDS011;21895;47.072;15.132;2023-12-20T01:51:36;2.53;;;1.47;;
20928;SDS011;21895;47.072;15.132;2023-12-20T01:54:04;1.67;;;0.83;;
20928;SDS011;21895;47.072;15.132;2023-12-20T01:56:31;1.93;;;1.50;;
20928;SDS011;21895;47.072;15.132;2023-12-20T01:58:59;2.37;;;1.43;;
20928;SDS011;21895;47.072;15.132;2023-12-20T02:01:27;1.97;;;1.67;;
20928;SDS011;21895;47.072;15.132;2023-12-20T02:03:54;6.07;;;1.53;;
20928;SDS011;21895;47.072;15.132;2023-12-20T02:06:22;1.33;;;0.93;;
20928;SDS011;21895;47.072;15.132;2023-12-20T02:08:54;1.83;;;1.07;;
20928;SDS011;21895;47.072;15.132;2023-12-20T02:11:21;8.93;;;2.07;;
20928;SDS011;21895;47.072;15.132;2023-12-20T02:13:48;2.30;;;1.20;;
20928;SDS011;21895;47.072;15.132;2023-12-20T02:16:15;4.57;;;2.50;;
20928;SDS011;21895;47.072;15.132;2023-12-20T02:18:42;4.87;;;2.20;;
20928;SDS011;21895;47.072;15.132;2023-12-20T02:21:10;5.00;;;1.70;;
20928;SDS011;21895;47.072;15.132;2023-12-20T02:23:36;5.90;;;1.93;;
20928;SDS011;21895;47.072;15.132;2023-12-20T02:26:03;4.50;;;1.93;;
20928;SDS011;21895;47.072;15.132;2023-12-20T02:28:32;5.47;;;2.97;;
20928;SDS011;21895;47.072;15.132;2023-12-20T02:30:59;8.03;;;2.20;;
20928;SDS011;21895;47.072;15.132;2023-12-20T02:33:26;5.83;;;2.47;;
20928;SDS011;21895;47.072;15.132;2023-12-20T02:35:52;6.83;;;3.40;;
20928;SDS011;21895;47.072;15.132;2023-12-20T02:38:19;13.83;;;3.50;;
20928;SDS011;21895;47.072;15.132;2023-12-20T02:40:45;3.47;;;1.80;;
20928;SDS011;21895;47.072;15.132;2023-12-20T02:43:15;1.87;;;1.67;;
20928;SDS011;21895;47.072;15.132;2023-12-20T02:45:42;3.07;;;1.07;;
20928;SDS011;21895;47.072;15.132;2023-12-20T02:48:09;5.10;;;1.37;;
20928;SDS011;21895;47.072;15.132;2023-12-20T02:50:35;2.60;;;1.53;;
20928;SDS011;21895;47.072;15.132;2023-12-20T02:53:02;3.30;;;1.30;;
20928;SDS011;21895;47.072;15.132;2023-12-20T02:55:29;0.73;;;0.73;;
20928;SDS011;21895;47.072;15.132;2023-12-20T02:57:56;5.00;;;1.30;;
20928;SDS011;21895;47.072;15.132;2023-12-20T03:00:22;2.57;;;1.60;;
20928;SDS011;21895;47.072;15.132;2023-12-20T03:02:49;2.23;;;1.50;;
20928;SDS011;21895;47.072;15.132;2023-12-20T03:05:16;16.50;;;4.30;;
20928;SDS011;21895;47.072;15.132;2023-12-20T03:07:43;4.47;;;2.10;;
20928;SDS011;21895;47.072;15.132;2023-12-20T03:10:10;3.47;;;2.50;;
20928;SDS011;21895;47.072;15.132;2023-12-20T03:12:48;10.47;;;4.70;;
20928;SDS011;21895;47.072;15.132;2023-12-20T03:15:15;5.17;;;2.53;;
20928;SDS011;21895;47.072;15.132;2023-12-20T03:17:42;2.60;;;1.27;;
20928;SDS011;21895;47.072;15.132;2023-12-20T03:20:09;2.20;;;1.80;;
20928;SDS011;21895;47.072;15.132;2023-12-20T03:22:36;2.60;;;1.57;;
20928;SDS011;21895;47.072;15.132;2023-12-20T03:25:02;6.40;;;2.07;;
20928;SDS011;21895;47.072;15.132;2023-12-20T03:27:29;3.30;;;1.90;;
20928;SDS011;21895;47.072;15.132;2023-12-20T03:29:56;13.77;;;1.97;;
20928;SDS011;21895;47.072;15.132;2023-12-20T03:32:23;4.07;;;1.23;;
20928;SDS011;21895;47.072;15.132;2023-12-20T03:34:49;1.50;;;1.40;;
20928;SDS011;21895;47.072;15.132;2023-12-20T03:37:16;2.13;;;1.70;;
20928;SDS011;21895;47.072;15.132;2023-12-20T03:39:43;4.93;;;2.03;;
20928;SDS011;21895;47.072;15.132;2023-12-20T03:42:09;1.87;;;1.77;;
20928;SDS011;21895;47.072;15.132;2023-12-20T03:44:38;4.50;;;2.37;;
20928;SDS011;21895;47.072;15.132;2023-12-20T03:47:08;2.27;;;1.77;;
20928;SDS011;21895;47.072;15.132;2023-12-20T03:49:34;3.27;;;1.60;;
20928;SDS011;21895;47.072;15.132;2023-12-20T03:52:02;1.20;;;0.90;;
20928;SDS011;21895;47.072;15.132;2023-12-20T03:54:30;4.87;;;2.00;;
20928;SDS011;21895;47.072;15.132;2023-12-20T03:56:56;1.73;;;1.33;;
20928;SDS011;21895;47.072;15.132;2023-12-20T03:59:23;1.40;;;0.97;;
20928;SDS011;21895;47.072;15.132;2023-12-20T04:01:49;3.23;;;1.27;;
20928;SDS011;21895;47.072;15.132;2023-12-20T04:04:16;0.70;;;0.70;;
20928;SDS011;21895;47.072;15.132;2023-12-20T04:06:43;1.33;;;1.23;;
20928;SDS011;21895;47.072;15.132;2023-12-20T04:09:10;1.17;;;1.07;;
20928;SDS011;21895;47.072;15.132;2023-12-20T04:11:37;2.03;;;0.80;;
20928;SDS011;21895;47.072;15.132;2023-12-20T04:14:04;4.17;;;1.70;;
20928;SDS011;21895;47.072;15.132;2023-12-20T04:16:30;2.90;;;1.33;;
20928;SDS011;21895;47.072;15.132;2023-12-20T04:18:57;7.00;;;2.17;;
20928;SDS011;21895;47.072;15.132;2023-12-20T04:21:24;6.23;;;2.27;;
20928;SDS011;21895;47.072;15.132;2023-12-20T04:23:50;2.80;;;1.40;;
20928;SDS011;21895;47.072;15.132;2023-12-20T04:26:17;5.13;;;3.13;;
20928;SDS011;21895;47.072;15.132;2023-12-20T04:28:43;1.67;;;1.43;;
20928;SDS011;21895;47.072;15.132;2023-12-20T04:31:10;7.90;;;2.77;;
20928;SDS011;21895;47.072;15.132;2023-12-20T04:33:36;4.83;;;1.93;;
20928;SDS011;21895;47.072;15.132;2023-12-20T04:36:03;5.63;;;2.97;;
20928;SDS011;21895;47.072;15.132;2023-12-20T04:38:30;1.37;;;1.27;;
20928;SDS011;21895;47.072;15.132;2023-12-20T04:40:56;1.57;;;1.20;;
20928;SDS011;21895;47.072;15.132;2023-12-20T04:43:23;2.97;;;1.27;;
20928;SDS011;21895;47.072;15.132;2023-12-20T04:45:50;2.07;;;1.47;;
20928;SDS011;21895;47.072;15.132;2023-12-20T04:48:16;1.50;;;1.27;;
20928;SDS011;21895;47.072;15.132;2023-12-20T04:50:43;2.23;;;0.93;;
20928;SDS011;21895;47.072;15.132;2023-12-20T04:53:10;1.43;;;1.07;;
20928;SDS011;21895;47.072;15.132;2023-12-20T04:55:36;0.80;;;0.77;;
20928;SDS011;21895;47.072;15.132;2023-12-20T04:58:04;5.17;;;2.47;;
20928;SDS011;21895;47.072;15.132;2023-12-20T05:00:31;3.43;;;1.80;;
20928;SDS011;21895;47.072;15.132;2023-12-20T05:02:57;4.37;;;1.80;;
20928;SDS011;21895;47.072;15.132;2023-12-20T05:05:24;0.60;;;0.60;;
20928;SDS011;21895;47.072;15.132;2023-12-20T05:07:51;2.20;;;1.80;;
20928;SDS011;21895;47.072;15.132;2023-12-20T05:10:18;4.73;;;2.00;;
20928;SDS011;21895;47.072;15.132;2023-12-20T05:12:45;2.80;;;1.83;;
20928;SDS011;21895;47.072;15.132;2023-12-20T05:15:11;5.83;;;2.20;;
20928;SDS011;21895;47.072;15.132;2023-12-20T05:17:40;3.20;;;1.27;;
20928;SDS011;21895;47.072;15.132;2023-12-20T05:20:07;2.30;;;0.93;;
20928;SDS011;21895;47.072;15.132;2023-12-20T05:22:34;2.10;;;1.10;;
20928;SDS011;21895;47.072;15.132;2023-12-20T05:25:01;5.53;;;1.10;;
20928;SDS011;21895;47.072;15.132;2023-12-20T05:27:27;1.63;;;1.27;;
20928;SDS011;21895;47.072;15.132;2023-12-20T05:29:54;3.70;;;0.57;;
20928;SDS011;21895;47.072;15.132;2023-12-20T05:32:23;3.13;;;1.20;;
20928;SDS011;21895;47.072;15.132;2023-12-20T05:34:50;0.83;;;0.83;;
20928;SDS011;21895;47.072;15.132;2023-12-20T05:37:17;3.07;;;1.60;;
20928;SDS011;21895;47.072;15.132;2023-12-20T05:39:44;2.50;;;1.43;;
20928;SDS011;21895;47.072;15.132;2023-12-20T05:42:10;5.07;;;1.77;;
20928;SDS011;21895;47.072;15.132;2023-12-20T05:44:37;1.07;;;0.97;;
20928;SDS011;21895;47.072;15.132;2023-12-20T05:47:03;2.23;;;1.17;;
20928;SDS011;21895;47.072;15.132;2023-12-20T05:49:30;3.07;;;2.20;;
20928;SDS011;21895;47.072;15.132;2023-12-20T05:51:57;3.70;;;1.77;;
20928;SDS011;21895;47.072;15.132;2023-12-20T05:54:23;0.93;;;0.83;;
20928;SDS011;21895;47.072;15.132;2023-12-20T05:56:50;2.17;;;1.20;;
20928;SDS011;21895;47.072;15.132;2023-12-20T05:59:17;1.53;;;1.00;;
20928;SDS011;21895;47.072;15.132;2023-12-20T06:01:43;1.70;;;0.93;;
20928;SDS011;21895;47.072;15.132;2023-12-20T06:04:10;2.83;;;1.90;;
20928;SDS011;21895;47.072;15.132;2023-12-20T06:06:40;2.23;;;1.00;;
20928;SDS011;21895;47.072;15.132;2023-12-20T06:09:08;6.93;;;1.50;;
20928;SDS011;21895;47.072;15.132;2023-12-20T06:11:35;6.20;;;1.80;;
20928;SDS011;21895;47.072;15.132;2023-12-20T06:14:02;3.63;;;1.73;;
20928;SDS011;21895;47.072;15.132;2023-12-20T06:16:28;11.13;;;3.37;;
20928;SDS011;21895;47.072;15.132;2023-12-20T06:18:55;3.80;;;1.50;;
20928;SDS011;21895;47.072;15.132;2023-12-20T06:21:21;1.77;;;1.30;;
20928;SDS011;21895;47.072;15.132;2023-12-20T06:23:48;1.33;;;0.90;;
20928;SDS011;21895;47.072;15.132;2023-12-20T06:26:15;3.40;;;1.27;;
20928;SDS011;21895;47.072;15.132;2023-12-20T06:28:41;3.07;;;1.37;;
20928;SDS011;21895;47.072;15.132;2023-12-20T06:31:08;5.10;;;1.43;;
20928;SDS011;21895;47.072;15.132;2023-12-20T06:33:35;2.30;;;1.80;;
20928;SDS011;21895;47.072;15.132;2023-12-20T06:36:04;2.40;;;1.90;;
20928;SDS011;21895;47.072;15.132;2023-12-20T06:38:32;2.23;;;1.40;;
20928;SDS011;21895;47.072;15.132;2023-12-20T06:40:59;7.73;;;2.03;;
20928;SDS011;21895;47.072;15.132;2023-12-20T06:43:30;3.90;;;1.53;;
20928;SDS011;21895;47.072;15.132;2023-12-20T06:46:14;4.17;;;1.80;;
20928;SDS011;21895;47.072;15.132;2023-12-20T06:48:44;2.50;;;1.03;;
20928;SDS011;21895;47.072;15.132;2023-12-20T06:51:14;2.03;;;1.60;;
20928;SDS011;21895;47.072;15.132;2023-12-20T06:53:42;1.03;;;0.93;;
20928;SDS011;21895;47.072;15.132;2023-12-20T06:56:10;6.80;;;1.20;;
20928;SDS011;21895;47.072;15.132;2023-12-20T06:58:41;3.40;;;2.63;;
20928;SDS011;21895;47.072;15.132;2023-12-20T07:01:14;8.57;;;2.63;;
20928;SDS011;21895;47.072;15.132;2023-12-20T07:03:41;3.90;;;2.20;;
20928;SDS011;21895;47.072;15.132;2023-12-20T07:06:08;2.73;;;1.83;;
20928;SDS011;21895;47.072;15.132;2023-12-20T07:08:35;6.10;;;3.00;;
20928;SDS011;21895;47.072;15.132;2023-12-20T07:11:01;8.57;;;2.90;;
20928;SDS011;21895;47.072;15.132;2023-12-20T07:13:28;6.47;;;3.23;;
20928;SDS011;21895;47.072;15.132;2023-12-20T07:15:56;6.63;;;2.50;;
20928;SDS011;21895;47.072;15.132;2023-12-20T07:18:22;5.90;;;2.93;;
20928;SDS011;21895;47.072;15.132;2023-12-20T07:20:49;4.90;;;3.20;;
20928;SDS011;21895;47.072;15.132;2023-12-20T07:23:16;5.03;;;2.97;;
20928;SDS011;21895;47.072;15.132;2023-12-20T07:25:42;8.80;;;3.53;;
20928;SDS011;21895;47.072;15.132;2023-12-20T07:28:09;5.40;;;3.40;;
20928;SDS011;21895;47.072;15.132;2023-12-20T07:30:36;9.17;;;4.27;;
20928;SDS011;21895;47.072;15.132;2023-12-20T07:33:03;7.93;;;3.50;;
20928;SDS011;21895;47.072;15.132;2023-12-20T07:35:30;48.97;;;3.70;;
20928;SDS011;21895;47.072;15.132;2023-12-20T07:37:57;8.40;;;4.27;;
20928;SDS011;21895;47.072;15.132;2023-12-20T07:40:24;24.90;;;7.63;;
20928;SDS011;21895;47.072;15.132;2023-12-20T07:42:50;16.30;;;4.80;;
20928;SDS011;21895;47.072;15.132;2023-12-20T07:45:17;17.03;;;5.97;;
20928;SDS011;21895;47.072;15.132;2023-12-20T07:47:44;24.20;;;8.63;;
20928;SDS011;21895;47.072;15.132;2023-12-20T07:50:11;12.50;;;6.87;;
20928;SDS011;21895;47.072;15.132;2023-12-20T07:52:38;12.70;;;4.70;;
20928;SDS011;21895;47.072;15.132;2023-12-20T07:55:05;15.73;;;4.63;;
20928;SDS011;21895;47.072;15.132;2023-12-20T07:57:33;7.97;;;2.83;;
20928;SDS011;21895;47.072;15.132;2023-12-20T07:59:59;3.90;;;2.10;;
20928;SDS011;21895;47.072;15.132;2023-12-20T08:02:26;1.60;;;1.50;;
20928;SDS011;21895;47.072;15.132;2023-12-20T08:04:53;5.13;;;2.30;;
20928;SDS011;21895;47.072;15.132;2023-12-20T08:07:20;7.80;;;2.67;;
20928;SDS011;21895;47.072;15.132;2023-12-20T08:09:46;3.33;;;1.70;;
20928;SDS011;21895;47.072;15.132;2023-12-20T08:12:13;5.93;;;3.13;;
20928;SDS011;21895;47.072;15.132;2023-12-20T08:14:41;5.23;;;3.57;;
20928;SDS011;21895;47.072;15.132;2023-12-20T08:17:07;2.87;;;1.80;;
20928;SDS011;21895;47.072;15.132;2023-12-20T08:19:34;5.87;;;1.77;;
20928;SDS011;21895;47.072;15.132;2023-12-20T08:22:00;4.57;;;2.47;;
20928;SDS011;21895;47.072;15.132;2023-12-20T08:24:28;7.93;;;2.93;;
20928;SDS011;21895;47.072;15.132;2023-12-20T08:26:55;4.63;;;2.07;;
20928;SDS011;21895;47.072;15.132;2023-12-20T08:29:22;4.53;;;3.43;;
20928;SDS011;21895;47.072;15.132;2023-12-20T08:31:52;4.73;;;2.93;;
20928;SDS011;21895;47.072;15.132;2023-12-20T08:34:22;5.43;;;2.70;;
20928;SDS011;21895;47.072;15.132;2023-12-20T08:36:52;4.37;;;2.77;;
20928;SDS011;21895;47.072;15.132;2023-12-20T08:39:19;6.57;;;3.23;;
20928;SDS011;21895;47.072;15.132;2023-12-20T08:41:46;9.47;;;3.83;;
20928;SDS011;21895;47.072;15.132;2023-12-20T08:44:13;12.97;;;5.13;;
20928;SDS011;21895;47.072;15.132;2023-12-20T08:46:39;12.77;;;4.63;;
20928;SDS011;21895;47.072;15.132;2023-12-20T08:49:06;11.63;;;4.63;;
20928;SDS011;21895;47.072;15.132;2023-12-20T08:51:34;12.53;;;5.77;;
20928;SDS011;21895;47.072;15.132;2023-12-20T08:54:04;17.97;;;5.53;;
20928;SDS011;21895;47.072;15.132;2023-12-20T08:56:33;10.30;;;4.87;;
20928;SDS011;21895;47.072;15.132;2023-12-20T08:59:01;11.90;;;5.20;;
20928;SDS011;21895;47.072;15.132;2023-12-20T09:01:28;10.90;;;4.47;;
20928;SDS011;21895;47.072;15.132;2023-12-20T09:03:54;16.50;;;5.93;;
20928;SDS011;21895;47.072;15.132;2023-12-20T09:06:21;11.13;;;5.50;;
20928;SDS011;21895;47.072;15.132;2023-12-20T09:08:48;10.80;;;4.77;;
20928;SDS011;21895;47.072;15.132;2023-12-20T09:11:14;9.37;;;4.53;;
20928;SDS011;21895;47.072;15.132;2023-12-20T09:13:41;13.63;;;5.53;;
20928;SDS011;21895;47.072;15.132;2023-12-20T09:16:09;11.03;;;5.10;;
20928;SDS011;21895;47.072;15.132;2023-12-20T09:18:36;12.83;;;4.67;;
20928;SDS011;21895;47.072;15.132;2023-12-20T09:21:03;18.70;;;4.70;;
20928;SDS011;21895;47.072;15.132;2023-12-20T09:23:30;14.13;;;5.47;;
20928;SDS011;21895;47.072;15.132;2023-12-20T09:25:56;19.47;;;5.53;;
20928;SDS011;21895;47.072;15.132;2023-12-20T09:28:23;10.27;;;5.20;;
20928;SDS011;21895;47.072;15.132;2023-12-20T09:30:50;9.90;;;4.67;;
20928;SDS011;21895;47.072;15.132;2023-12-20T09:33:17;8.70;;;4.83;;
20928;SDS011;21895;47.072;15.132;2023-12-20T09:35:44;10.57;;;5.30;;
20928;SDS011;21895;47.072;15.132;2023-12-20T09:38:10;9.43;;;3.43;;
20928;SDS011;21895;47.072;15.132;2023-12-20T09:40:38;25.07;;;7.17;;
20928;SDS011;21895;47.072;15.132;2023-12-20T09:43:11;30.10;;;9.27;;
20928;SDS011;21895;47.072;15.132;2023-12-20T09:45:47;19.33;;;7.90;;
20928;SDS011;21895;47.072;15.132;2023-12-20T09:48:14;20.00;;;7.67;;
20928;SDS011;21895;47.072;15.132;2023-12-20T09:50:45;11.90;;;5.07;;
20928;SDS011;21895;47.072;15.132;2023-12-20T09:53:17;11.93;;;5.40;;
20928;SDS011;21895;47.072;15.132;2023-12-20T09:55:49;13.03;;;5.97;;
20928;SDS011;21895;47.072;15.132;2023-12-20T09:58:15;15.97;;;6.10;;
20928;SDS011;21895;47.072;15.132;2023-12-20T10:00:42;16.27;;;7.00;;
20928;SDS011;21895;47.072;15.132;2023-12-20T10:03:09;16.00;;;6.33;;
20928;SDS011;21895;47.072;15.132;2023-12-20T10:05:38;19.57;;;5.90;;
20928;SDS011;21895;47.072;15.132;2023-12-20T10:08:09;15.67;;;6.43;;
20928;SDS011;21895;47.072;15.132;2023-12-20T10:10:35;18.27;;;6.87;;
20928;SDS011;21895;47.072;15.132;2023-12-20T10:13:12;9.07;;;4.60;;
20928;SDS011;21895;47.072;15.132;2023-12-20T10:15:40;11.60;;;4.37;;
20928;SDS011;21895;47.072;15.132;2023-12-20T10:18:08;8.10;;;3.77;;
20928;SDS011;21895;47.072;15.132;2023-12-20T10:20:36;16.53;;;4.20;;
20928;SDS011;21895;47.072;15.132;2023-12-20T10:23:03;10.97;;;5.33;;
20928;SDS011;21895;47.072;15.132;2023-12-20T10:25:30;9.83;;;5.30;;
20928;SDS011;21895;47.072;15.132;2023-12-20T10:28:10;8.30;;;3.37;;
20928;SDS011;21895;47.072;15.132;2023-12-20T10:30:46;9.00;;;4.30;;
20928;SDS011;21895;47.072;15.132;2023-12-20T10:33:13;8.97;;;3.73;;
20928;SDS011;21895;47.072;15.132;2023-12-20T10:35:50;4.60;;;2.77;;
20928;SDS011;21895;47.072;15.132;2023-12-20T10:38:17;9.83;;;3.90;;
20928;SDS011;21895;47.072;15.132;2023-12-20T10:40:47;8.53;;;3.50;;
20928;SDS011;21895;47.072;15.132;2023-12-20T10:43:19;7.07;;;2.77;;
20928;SDS011;21895;47.072;15.132;2023-12-20T10:45:48;9.77;;;4.30;;
20928;SDS011;21895;47.072;15.132;2023-12-20T10:48:14;8.03;;;3.57;;
20928;SDS011;21895;47.072;15.132;2023-12-20T10:50:42;18.70;;;4.93;;
20928;SDS011;21895;47.072;15.132;2023-12-20T10:53:10;11.47;;;4.30;;
20928;SDS011;21895;47.072;15.132;2023-12-20T10:55:38;10.73;;;4.47;;
20928;SDS011;21895;47.072;15.132;2023-12-20T10:58:09;12.97;;;4.70;;
20928;SDS011;21895;47.072;15.132;2023-12-20T11:00:39;12.07;;;4.37;;
20928;SDS011;21895;47.072;15.132;2023-12-20T11:03:08;14.83;;;4.83;;
20928;SDS011;21895;47.072;15.132;2023-12-20T11:05:44;14.67;;;5.30;;
20928;SDS011;21895;47.072;15.132;2023-12-20T11:08:44;25.60;;;5.63;;
20928;SDS011;21895;47.072;15.132;2023-12-20T11:11:32;13.93;;;4.53;;
20928;SDS011;21895;47.072;15.132;2023-12-20T11:14:22;10.10;;;4.70;;
20928;SDS011;21895;47.072;15.132;2023-12-20T11:17:07;20.50;;;5.60;;
20928;SDS011;21895;47.072;15.132;2023-12-20T11:24:31;15.93;;;5.30;;
20928;SDS011;21895;47.072;15.132;2023-12-20T11:26:59;11.73;;;4.40;;
20928;SDS011;21895;47.072;15.132;2023-12-20T11:29:34;12.63;;;4.83;;
20928;SDS011;21895;47.072;15.132;2023-12-20T11:32:02;11.57;;;5.17;;
20928;SDS011;21895;47.072;15.132;2023-12-20T11:35:36;12.87;;;3.97;;
20928;SDS011;21895;47.072;15.132;2023-12-20T11:38:02;10.37;;;4.87;;
20928;SDS011;21895;47.072;15.132;2023-12-20T11:40:30;11.93;;;4.20;;
20928;SDS011;21895;47.072;15.132;2023-12-20T11:43:01;9.50;;;3.93;;
20928;SDS011;21895;47.072;15.132;2023-12-20T11:45:28;7.63;;;3.23;;
20928;SDS011;21895;47.072;15.132;2023-12-20T11:47:56;8.87;;;4.47;;
20928;SDS011;21895;47.072;15.132;2023-12-20T11:50:24;8.57;;;3.60;;
20928;SDS011;21895;47.072;15.132;2023-12-20T11:52:52;12.73;;;4.10;;
20928;SDS011;21895;47.072;15.132;2023-12-20T11:55:24;20.83;;;7.60;;
20928;SDS011;21895;47.072;15.132;2023-12-20T11:57:51;29.90;;;10.43;;
20928;SDS011;21895;47.072;15.132;2023-12-20T12:00:18;22.00;;;9.10;;
20928;SDS011;21895;47.072;15.132;2023-12-20T12:03:04;25.00;;;9.23;;
20928;SDS011;21895;47.072;15.132;2023-12-20T12:05:31;26.37;;;8.60;;
20928;SDS011;21895;47.072;15.132;2023-12-20T12:07:58;32.00;;;9.97;;
20928;SDS011;21895;47.072;15.132;2023-12-20T12:10:25;23.73;;;6.47;;
20928;SDS011;21895;47.072;15.132;2023-12-20T12:12:51;13.03;;;6.20;;
20928;SDS011;21895;47.072;15.132;2023-12-20T12:15:19;13.53;;;5.67;;
20928;SDS011;21895;47.072;15.132;2023-12-20T12:17:55;16.37;;;5.47;;
20928;SDS011;21895;47.072;15.132;2023-12-20T12:20:23;18.13;;;7.33;;
20928;SDS011;21895;47.072;15.132;2023-12-20T12:23:05;22.13;;;7.83;;
20928;SDS011;21895;47.072;15.132;2023-12-20T12:25:34;23.63;;;7.83;;
20928;SDS011;21895;47.072;15.132;2023-12-20T12:28:08;14.07;;;5.83;;
20928;SDS011;21895;47.072;15.132;2023-12-20T12:30:35;12.50;;;5.67;;
20928;SDS011;21895;47.072;15.132;2023-12-20T12:33:11;20.73;;;6.77;;
20928;SDS011;21895;47.072;15.132;2023-12-20T12:35:38;28.43;;;7.30;;
20928;SDS011;21895;47.072;15.132;2023-12-20T12:38:06;19.97;;;6.97;;
20928;SDS011;21895;47.072;15.132;2023-12-20T12:40:34;20.60;;;6.87;;
20928;SDS011;21895;47.072;15.132;2023-12-20T12:43:01;18.67;;;7.47;;
20928;SDS011;21895;47.072;15.132;2023-12-20T12:45:29;26.73;;;10.90;;
20928;SDS011;21895;47.072;15.132;2023-12-20T12:47:56;28.50;;;9.30;;
20928;SDS011;21895;47.072;15.132;2023-12-20T12:50:23;21.20;;;8.77;;
20928;SDS011;21895;47.072;15.132;2023-12-20T12:52:49;35.27;;;10.70;;
20928;SDS011;21895;47.072;15.132;2023-12-20T12:55:16;31.80;;;11.70;;
20928;SDS011;21895;47.072;15.132;2023-12-20T12:57:43;35.03;;;11.67;;
20928;SDS011;21895;47.072;15.132;2023-12-20T13:00:10;31.27;;;9.97;;
20928;SDS011;21895;47.072;15.132;2023-12-20T13:02:37;32.77;;;11.07;;
20928;SDS011;21895;47.072;15.132;2023-12-20T13:05:07;40.30;;;11.60;;
20928;SDS011;21895;47.072;15.132;2023-12-20T13:07:35;48.23;;;14.37;;
20928;SDS011;21895;47.072;15.132;2023-12-20T13:10:03;47.27;;;13.47;;
20928;SDS011;21895;47.072;15.132;2023-12-20T13:12:31;49.43;;;15.77;;
20928;SDS011;21895;47.072;15.132;2023-12-20T13:14:58;37.97;;;13.07;;
20928;SDS011;21895;47.072;15.132;2023-12-20T13:17:24;37.57;;;12.77;;
20928;SDS011;21895;47.072;15.132;2023-12-20T13:19:52;44.50;;;13.67;;
20928;SDS011;21895;47.072;15.132;2023-12-20T13:22:19;36.93;;;13.63;;
20928;SDS011;21895;47.072;15.132;2023-12-20T13:24:45;48.63;;;14.87;;
20928;SDS011;21895;47.072;15.132;2023-12-20T13:27:12;49.10;;;15.33;;
20928;SDS011;21895;47.072;15.132;2023-12-20T13:29:39;35.20;;;12.13;;
20928;SDS011;21895;47.072;15.132;2023-12-20T13:32:06;33.57;;;12.10;;
20928;SDS011;21895;47.072;15.132;2023-12-20T13:34:33;40.00;;;12.43;;
20928;SDS011;21895;47.072;15.132;2023-12-20T13:36:59;39.50;;;13.40;;
20928;SDS011;21895;47.072;15.132;2023-12-20T13:39:26;35.87;;;12.30;;
20928;SDS011;21895;47.072;15.132;2023-12-20T13:41:53;34.73;;;13.17;;
20928;SDS011;21895;47.072;15.132;2023-12-20T13:44:21;52.23;;;15.40;;
20928;SDS011;21895;47.072;15.132;2023-12-20T13:46:48;35.00;;;11.70;;
20928;SDS011;21895;47.072;15.132;2023-12-20T13:49:15;37.27;;;12.10;;
20928;SDS011;21895;47.072;15.132;2023-12-20T13:51:42;33.80;;;10.90;;
20928;SDS011;21895;47.072;15.132;2023-12-20T13:54:09;40.33;;;11.23;;
20928;SDS011;21895;47.072;15.132;2023-12-20T13:56:36;39.93;;;13.50;;
20928;SDS011;21895;47.072;15.132;2023-12-20T13:59:17;42.50;;;15.70;;
20928;SDS011;21895;47.072;15.132;2023-12-20T14:01:44;41.60;;;15.60;;
20928;SDS011;21895;47.072;15.132;2023-12-20T14:04:11;47.60;;;14.87;;
20928;SDS011;21895;47.072;15.132;2023-12-20T14:07:05;56.77;;;18.13;;
20928;SDS011;21895;47.072;15.132;2023-12-20T14:09:33;39.63;;;13.87;;
20928;SDS011;21895;47.072;15.132;2023-12-20T14:12:00;41.63;;;13.80;;
20928;SDS011;21895;47.072;15.132;2023-12-20T14:14:26;34.80;;;12.23;;
20928;SDS011;21895;47.072;15.132;2023-12-20T14:16:53;31.43;;;11.83;;
20928;SDS011;21895;47.072;15.132;2023-12-20T14:19:19;38.23;;;13.20;;
20928;SDS011;21895;47.072;15.132;2023-12-20T14:21:46;39.03;;;13.20;;
20928;SDS011;21895;47.072;15.132;2023-12-20T14:24:13;38.17;;;13.20;;
20928;SDS011;21895;47.072;15.132;2023-12-20T14:26:42;38.47;;;12.13;;
20928;SDS011;21895;47.072;15.132;2023-12-20T14:29:10;34.37;;;13.73;;
20928;SDS011;21895;47.072;15.132;2023-12-20T14:31:36;28.27;;;11.97;;
20928;SDS011;21895;47.072;15.132;2023-12-20T14:34:04;33.63;;;12.90;;
20928;SDS011;21895;47.072;15.132;2023-12-20T14:36:31;30.27;;;11.53;;
20928;SDS011;21895;47.072;15.132;2023-12-20T14:38:57;26.37;;;10.40;;